Time;durP1;ratioP1;P1;durP2;ratioP2;P2;SDS_P1;SDS_P2;PMS_P1;PMS_P2;Temp;Humidity;BMP_temperature;BMP_pressure;BME280_temperature;BME280_humidity;BME280_pressure;Samples;Min_cycle;Max_cycle;Signal;HPM_P1;HPM_P2
2023/01/03 00:02:21;;;;;;;;;;;7.50;99.90;;;;;;5044225;28;19913;-68
2023/01/03 00:04:46;;;;;;;;;;;7.70;99.90;;;;;;5048872;28;19970;-68
2023/01/03 00:07:11;;;;;;;;;;;7.80;99.90;;;;;;5045506;28;19931;-68
2023/01/03 00:09:37;;;;;;;;;;;7.80;99.90;;;;;;5047072;28;20000;-69
2023/01/03 00:14:46;;;;;;;;;;;7.80;99.90;;;;;;5046623;28;19940;-68
2023/01/03 00:17:12;;;;;;;;;;;7.80;99.90;;;;;;5043412;28;19916;-68
2023/01/03 00:19:42;;;;;;;;;;;7.80;99.90;;;;;;5049431;28;19923;-68
2023/01/03 00:22:08;;;;;;;;;;;7.90;99.90;;;;;;5048190;28;19913;-68
2023/01/03 00:24:34;;;;;;;;;;;7.90;99.90;;;;;;5047668;28;19913;-68
2023/01/03 00:26:59;;;;;;;;;;;7.90;99.90;;;;;;5045862;28;19920;-68
2023/01/03 00:29:25;;;;;;;;;;;7.90;99.90;;;;;;5043427;28;19917;-66
2023/01/03 00:31:50;;;;;;;;;;;7.90;99.90;;;;;;5045653;28;20326;-68
2023/01/03 00:34:16;;;;;;;;;;;7.90;99.90;;;;;;5049682;28;19913;-68
2023/01/03 00:36:41;;;;;;;;;;;7.90;99.90;;;;;;5048120;28;19935;-68
2023/01/03 00:39:07;;;;;;;;;;;7.90;99.90;;;;;;5045600;28;20047;-68
2023/01/03 00:41:32;;;;;;;;;;;7.80;99.90;;;;;;5047255;28;19913;-67
2023/01/03 00:43:58;;;;;;;;;;;7.80;99.90;;;;;;5040472;28;19913;-67
2023/01/03 00:46:23;;;;;;;;;;;7.80;99.90;;;;;;5047697;28;19917;-67
2023/01/03 00:48:49;;;;;;;;;;;7.70;99.90;;;;;;5043029;28;20375;-67
2023/01/03 00:51:14;;;;;;;;;;;7.70;99.90;;;;;;5044398;28;19913;-67
2023/01/03 00:53:40;;;;;;;;;;;7.80;99.90;;;;;;5050075;28;20298;-67
2023/01/03 00:56:07;;;;;;;;;;;7.80;99.90;;;;;;5046757;28;19960;-67
2023/01/03 00:58:33;;;;;;;;;;;7.70;99.90;;;;;;5043104;28;20007;-67
2023/01/03 01:01:05;;;;;;;;;;;7.70;99.90;;;;;;5042334;28;20031;-67
2023/01/03 01:03:31;;;;;;;;;;;7.70;99.90;;;;;;5041971;28;19913;-67
2023/01/03 01:05:56;;;;;;;;;;;7.90;99.90;;;;;;5048341;28;19920;-67
2023/01/03 01:08:22;;;;;;;;;;;7.80;99.90;;;;;;5043182;28;19917;-67
2023/01/03 01:11:00;;;;;;;;;;;7.70;99.90;;;;;;5046782;28;20267;-67
2023/01/03 01:13:29;;;;;;;;;;;7.60;99.90;;;;;;5045191;28;19913;-67
2023/01/03 01:15:59;;;;;;;;;;;7.60;99.90;;;;;;5045064;28;19921;-67
2023/01/03 01:18:24;;;;;;;;;;;7.60;99.90;;;;;;5048376;28;19963;-67
2023/01/03 01:20:49;;;;;;;;;;;7.50;99.90;;;;;;5046172;28;19944;-67
2023/01/03 01:23:15;;;;;;;;;;;7.50;99.90;;;;;;5048481;28;19966;-67
2023/01/03 01:25:41;;;;;;;;;;;7.40;99.90;;;;;;5047493;28;19940;-68
2023/01/03 01:28:07;;;;;;;;;;;7.40;99.90;;;;;;5047816;28;19917;-67
2023/01/03 01:30:32;;;;;;;;;;;7.30;99.90;;;;;;5045899;28;20365;-67
2023/01/03 01:32:58;;;;;;;;;;;7.40;99.90;;;;;;5046016;28;19935;-67
2023/01/03 01:35:23;;;;;;;;;;;7.30;99.90;;;;;;5049499;28;19959;-67
2023/01/03 01:37:49;;;;;;;;;;;7.30;99.90;;;;;;5043823;28;19917;-67
2023/01/03 01:40:14;;;;;;;;;;;7.30;99.90;;;;;;5050231;28;20444;-67
2023/01/03 01:45:24;;;;;;;;;;;7.20;99.90;;;;;;5049896;28;19999;-67
2023/01/03 01:47:52;;;;;;;;;;;7.20;99.90;;;;;;5041909;28;19913;-68
2023/01/03 01:50:26;;;;;;;;;;;7.20;99.90;;;;;;5046715;28;19920;-67
2023/01/03 01:53:15;;;;;;;;;;;7.20;99.90;;;;;;5045765;28;19920;-67
2023/01/03 01:56:03;;;;;;;;;;;7.30;99.90;;;;;;5034368;28;19920;-67
2023/01/03 01:58:31;;;;;;;;;;;7.30;99.90;;;;;;5044283;28;19917;-67
2023/01/03 02:00:57;;;;;;;;;;;7.20;99.90;;;;;;5039327;28;19917;-67
2023/01/03 02:03:23;;;;;;;;;;;7.10;99.90;;;;;;5044600;28;19940;-67
2023/01/03 02:05:50;;;;;;;;;;;7.00;99.90;;;;;;5048543;28;20452;-67
2023/01/03 02:08:15;;;;;;;;;;;6.90;99.90;;;;;;5047780;28;19913;-67
2023/01/03 02:10:47;;;;;;;;;;;6.90;99.90;;;;;;5043408;28;19967;-65
2023/01/03 02:13:12;;;;;;;;;;;6.90;99.90;;;;;;5041874;28;19971;-67
2023/01/03 02:15:38;;;;;;;;;;;6.90;99.90;;;;;;5045141;28;19912;-67
2023/01/03 02:18:09;;;;;;;;;;;6.90;99.90;;;;;;5039666;28;19939;-67
2023/01/03 02:20:48;;;;;;;;;;;6.80;99.90;;;;;;5043479;28;20063;-67
2023/01/03 02:23:21;;;;;;;;;;;6.90;99.90;;;;;;5050392;28;19912;-67
2023/01/03 02:25:49;;;;;;;;;;;6.90;99.90;;;;;;5044160;28;19913;-68
2023/01/03 02:28:42;;;;;;;;;;;6.80;99.90;;;;;;5045362;28;19995;-68
2023/01/03 02:31:12;;;;;;;;;;;6.90;99.90;;;;;;5045847;28;19920;-67
2023/01/03 02:33:43;;;;;;;;;;;6.90;99.90;;;;;;5049213;28;19921;-68
2023/01/03 02:36:09;;;;;;;;;;;6.80;99.90;;;;;;5049754;28;19912;-67
2023/01/03 02:38:46;;;;;;;;;;;6.80;99.90;;;;;;5068215;28;20008;-68
2023/01/03 02:41:22;;;;;;;;;;;6.80;99.90;;;;;;5046522;28;19910;-68
2023/01/03 02:43:51;;;;;;;;;;;6.70;99.90;;;;;;5047615;28;19913;-68
2023/01/03 02:46:33;;;;;;;;;;;6.60;99.90;;;;;;5048976;28;19908;-68
2023/01/03 02:48:58;;;;;;;;;;;6.60;99.90;;;;;;5045373;28;19979;-67
2023/01/03 02:51:24;;;;;;;;;;;6.50;99.90;;;;;;5050005;28;20386;-67
2023/01/03 02:53:49;;;;;;;;;;;6.50;99.90;;;;;;5048581;28;19913;-68
2023/01/03 02:56:21;;;;;;;;;;;6.50;99.90;;;;;;5050942;28;19920;-67
2023/01/03 02:58:48;;;;;;;;;;;6.50;99.90;;;;;;5049443;28;19927;-68
2023/01/03 03:01:15;;;;;;;;;;;6.50;99.90;;;;;;5050631;28;19913;-67
2023/01/03 03:03:40;;;;;;;;;;;6.50;99.90;;;;;;5045947;28;19956;-67
2023/01/03 03:06:25;;;;;;;;;;;6.50;99.90;;;;;;5054305;28;20392;-67
2023/01/03 03:08:50;;;;;;;;;;;6.40;99.90;;;;;;5050552;28;19955;-67
2023/01/03 03:14:05;;;;;;;;;;;6.40;99.90;;;;;;5050487;28;19920;-68
2023/01/03 03:16:49;;;;;;;;;;;6.40;99.90;;;;;;5050652;28;19913;-67
2023/01/03 03:25:20;;;;;;;;;;;6.30;99.90;;;;;;5047444;28;20015;-67
2023/01/03 03:30:32;;;;;;;;;;;6.20;99.90;;;;;;5041771;28;19971;-67
2023/01/03 03:33:04;;;;;;;;;;;6.20;99.90;;;;;;5051260;28;19917;-67
2023/01/03 03:35:31;;;;;;;;;;;6.00;99.90;;;;;;5051925;28;19921;-67
2023/01/03 03:37:58;;;;;;;;;;;5.90;99.90;;;;;;5049208;28;19909;-67
2023/01/03 03:46:17;;;;;;;;;;;5.80;99.90;;;;;;5047458;28;20008;-67
2023/01/03 03:51:31;;;;;;;;;;;5.90;99.90;;;;;;5050276;28;19920;-68
2023/01/03 03:54:00;;;;;;;;;;;5.90;99.90;;;;;;5060859;28;19916;-68
2023/01/03 03:56:30;;;;;;;;;;;6.00;99.90;;;;;;5048186;28;19912;-68
2023/01/03 03:58:59;;;;;;;;;;;6.10;99.90;;;;;;5046738;28;19917;-68
2023/01/03 04:01:25;;;;;;;;;;;6.20;99.90;;;;;;5046444;28;19996;-68
2023/01/03 04:03:52;;;;;;;;;;;6.30;99.90;;;;;;5047755;28;20035;-68
2023/01/03 04:06:21;;;;;;;;;;;6.10;99.90;;;;;;5047404;28;19954;-68
2023/01/03 04:08:46;;;;;;;;;;;6.10;99.90;;;;;;5049308;28;19923;-68
2023/01/03 04:11:12;;;;;;;;;;;6.10;99.90;;;;;;5047393;28;19912;-68
2023/01/03 04:13:38;;;;;;;;;;;5.90;99.90;;;;;;5045922;28;20371;-67
2023/01/03 04:16:03;;;;;;;;;;;5.90;99.90;;;;;;5049193;28;19908;-68
2023/01/03 04:18:29;;;;;;;;;;;5.70;99.90;;;;;;5047525;28;20035;-68
2023/01/03 04:20:55;;;;;;;;;;;5.70;99.90;;;;;;5046155;28;19928;-65
2023/01/03 04:23:20;;;;;;;;;;;5.70;99.90;;;;;;5048890;28;19913;-68
2023/01/03 04:25:47;;;;;;;;;;;5.70;99.90;;;;;;5046938;28;20326;-67
2023/01/03 04:28:13;;;;;;;;;;;5.80;99.90;;;;;;5048955;28;19917;-68
2023/01/03 04:30:39;;;;;;;;;;;5.70;99.90;;;;;;5048656;28;20367;-68
2023/01/03 04:33:04;;;;;;;;;;;5.60;99.90;;;;;;5042085;28;19912;-68
2023/01/03 04:35:30;;;;;;;;;;;5.60;99.90;;;;;;5049603;28;20313;-68
2023/01/03 04:37:56;;;;;;;;;;;5.60;99.90;;;;;;5049797;28;19921;-67
2023/01/03 04:40:22;;;;;;;;;;;5.60;99.90;;;;;;5048944;28;20325;-67
2023/01/03 04:45:31;;;;;;;;;;;5.60;99.90;;;;;;5046374;28;19970;-68
2023/01/03 04:47:57;;;;;;;;;;;5.70;99.90;;;;;;5042590;28;19925;-67
2023/01/03 04:50:22;;;;;;;;;;;5.80;99.90;;;;;;5047363;28;19921;-68
2023/01/03 04:52:48;;;;;;;;;;;5.90;99.90;;;;;;5043956;28;19955;-68
2023/01/03 04:55:13;;;;;;;;;;;5.90;99.90;;;;;;5049148;28;19909;-68
2023/01/03 04:57:39;;;;;;;;;;;5.90;99.90;;;;;;5069485;23;20438;-61
2023/01/03 05:00:04;;;;;;;;;;;6.00;99.90;;;;;;5037821;28;20310;-61
2023/01/03 05:02:30;;;;;;;;;;;6.10;99.90;;;;;;5042296;28;19928;-64
2023/01/03 05:04:55;;;;;;;;;;;6.20;99.90;;;;;;5046997;28;19913;-63
2023/01/03 05:07:21;;;;;;;;;;;6.30;99.90;;;;;;5047760;28;20000;-64
2023/01/03 05:09:46;;;;;;;;;;;6.20;99.90;;;;;;5044858;28;20380;-65
2023/01/03 05:12:12;;;;;;;;;;;6.10;99.90;;;;;;5046313;28;19924;-65
2023/01/03 05:14:40;;;;;;;;;;;6.10;99.90;;;;;;5046551;28;19912;-65
2023/01/03 05:17:06;;;;;;;;;;;6.20;99.90;;;;;;5045573;28;19912;-64
2023/01/03 05:19:32;;;;;;;;;;;6.30;99.90;;;;;;5042670;28;19917;-64
2023/01/03 05:27:26;;;;;;;;;;;6.50;99.90;;;;;;5039651;28;19962;-64
2023/01/03 05:29:53;;;;;;;;;;;6.60;99.90;;;;;;5045601;28;19917;-63
2023/01/03 05:32:19;;;;;;;;;;;6.60;99.90;;;;;;5048302;28;19921;-64
2023/01/03 05:34:45;;;;;;;;;;;6.70;99.90;;;;;;5041870;28;20272;-64
2023/01/03 05:37:10;;;;;;;;;;;6.70;99.90;;;;;;5048605;28;19936;-64
2023/01/03 05:39:35;;;;;;;;;;;6.70;99.90;;;;;;5043208;28;20019;-64
2023/01/03 05:42:01;;;;;;;;;;;6.80;99.90;;;;;;5044915;28;19917;-62
2023/01/03 05:44:27;;;;;;;;;;;6.70;99.90;;;;;;5046506;28;19917;-64
2023/01/03 05:46:53;;;;;;;;;;;6.70;99.90;;;;;;5042874;28;19952;-64
2023/01/03 05:49:18;;;;;;;;;;;6.40;99.90;;;;;;5048285;28;20034;-63
2023/01/03 05:51:44;;;;;;;;;;;6.40;99.90;;;;;;5045334;28;19913;-64
2023/01/03 05:54:13;;;;;;;;;;;6.30;99.90;;;;;;5046108;28;20008;-64
2023/01/03 05:56:38;;;;;;;;;;;6.10;99.90;;;;;;5049476;28;19919;-64
2023/01/03 05:59:06;;;;;;;;;;;6.00;99.90;;;;;;5043250;28;20008;-64
2023/01/03 06:01:32;;;;;;;;;;;6.00;99.90;;;;;;5040089;28;19971;-64
2023/01/03 06:03:58;;;;;;;;;;;5.90;99.90;;;;;;5045234;28;19917;-63
2023/01/03 06:06:23;;;;;;;;;;;5.90;99.90;;;;;;5043258;28;19944;-64
2023/01/03 06:08:49;;;;;;;;;;;5.80;99.90;;;;;;5045819;28;19967;-65
2023/01/03 06:11:15;;;;;;;;;;;5.70;99.90;;;;;;5049853;28;19920;-63
2023/01/03 06:13:41;;;;;;;;;;;5.70;99.90;;;;;;5050316;28;19920;-64
2023/01/03 06:18:51;;;;;;;;;;;5.60;99.90;;;;;;5048881;28;19923;-63
2023/01/03 06:21:17;;;;;;;;;;;5.50;99.90;;;;;;5046427;28;20689;-64
2023/01/03 06:23:44;;;;;;;;;;;5.50;99.90;;;;;;5046636;28;19917;-62
2023/01/03 06:26:10;;;;;;;;;;;5.50;99.90;;;;;;5044278;28;20012;-64
2023/01/03 06:28:35;;;;;;;;;;;5.40;99.90;;;;;;5050307;28;19913;-64
2023/01/03 06:31:03;;;;;;;;;;;5.40;99.90;;;;;;5047310;28;20458;-63
2023/01/03 06:33:28;;;;;;;;;;;5.40;99.90;;;;;;5051601;28;19920;-63
2023/01/03 06:35:53;;;;;;;;;;;5.50;99.90;;;;;;5047036;28;20007;-63
2023/01/03 06:38:19;;;;;;;;;;;5.50;99.90;;;;;;5050907;28;19912;-63
2023/01/03 06:40:48;;;;;;;;;;;5.50;99.90;;;;;;5049901;28;19921;-63
2023/01/03 06:43:13;;;;;;;;;;;5.50;99.90;;;;;;5051399;28;19913;-64
2023/01/03 06:53:54;;;;;;;;;;;5.60;99.90;;;;;;5048784;28;20473;-64
2023/01/03 06:56:21;;;;;;;;;;;5.60;99.90;;;;;;5048521;28;20426;-63
2023/01/03 06:58:47;;;;;;;;;;;5.60;99.90;;;;;;5053367;28;19927;-64
2023/01/03 07:01:13;;;;;;;;;;;5.50;99.90;;;;;;5044281;28;20259;-57
2023/01/03 07:03:38;;;;;;;;;;;5.50;99.90;;;;;;5040133;28;19932;-58
2023/01/03 07:06:04;;;;;;;;;;;5.50;99.90;;;;;;5042666;28;19956;-56
2023/01/03 07:08:29;;;;;;;;;;;5.50;99.90;;;;;;5047193;28;19956;-56
2023/01/03 07:10:55;;;;;;;;;;;5.50;99.90;;;;;;5044064;28;19925;-59
2023/01/03 07:16:24;;;;;;;;;;;5.60;99.90;;;;;;5044658;28;20424;-58
2023/01/03 07:18:50;;;;;;;;;;;5.70;99.90;;;;;;5045802;28;19916;-57
2023/01/03 07:21:15;;;;;;;;;;;5.70;99.90;;;;;;5048642;28;19978;-57
2023/01/03 07:23:41;;;;;;;;;;;5.70;99.90;;;;;;5052434;28;20062;-57
2023/01/03 07:26:07;;;;;;;;;;;5.60;99.90;;;;;;5046724;28;19960;-57
2023/01/03 07:28:32;;;;;;;;;;;5.60;99.90;;;;;;5045834;28;19917;-57
2023/01/03 07:30:59;;;;;;;;;;;5.70;99.90;;;;;;5045396;28;20450;-56
2023/01/03 07:33:25;;;;;;;;;;;5.70;99.90;;;;;;5051659;28;19944;-56
2023/01/03 07:35:50;;;;;;;;;;;5.80;99.90;;;;;;5043600;28;19963;-56
2023/01/03 07:38:16;;;;;;;;;;;5.80;99.90;;;;;;5042575;28;20299;-57
2023/01/03 07:40:41;;;;;;;;;;;5.90;99.90;;;;;;5050434;28;19970;-57
2023/01/03 07:45:53;;;;;;;;;;;6.00;99.90;;;;;;5049892;28;19924;-58
2023/01/03 07:48:19;;;;;;;;;;;6.10;99.90;;;;;;5048851;28;19912;-57
2023/01/03 07:50:44;;;;;;;;;;;6.20;99.90;;;;;;5048744;28;20011;-57
2023/01/03 07:53:15;;;;;;;;;;;6.20;99.90;;;;;;5047100;28;20286;-56
2023/01/03 07:55:41;;;;;;;;;;;6.30;99.90;;;;;;5049190;28;19912;-58
2023/01/03 07:58:07;;;;;;;;;;;6.30;99.90;;;;;;5048606;28;19913;-58
2023/01/03 08:00:32;;;;;;;;;;;6.30;99.90;;;;;;5051814;28;19913;-58
2023/01/03 08:02:57;;;;;;;;;;;6.30;99.90;;;;;;5045124;28;19917;-54
2023/01/03 08:05:23;;;;;;;;;;;6.40;99.90;;;;;;5053274;28;19952;-55
2023/01/03 08:07:50;;;;;;;;;;;6.50;99.90;;;;;;5047063;28;19913;-56
2023/01/03 08:13:18;;;;;;;;;;;6.50;99.90;;;;;;5043934;28;19979;-56
2023/01/03 08:15:47;;;;;;;;;;;6.60;99.90;;;;;;5051453;28;19908;-58
2023/01/03 08:18:13;;;;;;;;;;;6.60;99.90;;;;;;5047051;28;19913;-58
2023/01/03 08:20:39;;;;;;;;;;;6.70;99.90;;;;;;5049226;28;19916;-56
2023/01/03 08:23:04;;;;;;;;;;;6.70;99.90;;;;;;5047304;28;19913;-57
2023/01/03 08:25:30;;;;;;;;;;;6.80;99.90;;;;;;5052887;28;20336;-57
2023/01/03 08:27:56;;;;;;;;;;;6.90;99.90;;;;;;5039512;28;20055;-55
2023/01/03 08:30:22;;;;;;;;;;;;;;;;;;5043965;28;19924;-57
2023/01/03 08:32:48;;;;;;;;;;;;;;;;;;5043801;28;19980;-55
2023/01/03 08:35:14;;;;;;;;;;;6.90;99.90;;;;;;5042987;28;19912;-56
2023/01/03 08:37:41;;;;;;;;;;;7.00;99.90;;;;;;5044064;28;20342;-53
2023/01/03 08:40:09;;;;;;;;;;;7.00;99.90;;;;;;5046238;28;20379;-56
2023/01/03 08:42:35;;;;;;;;;;;;;;;;;;5046515;28;19971;-57
2023/01/03 08:45:01;;;;;;;;;;;;;;;;;;5042318;28;19920;-56
2023/01/03 08:47:27;;;;;;;;;;;;;;;;;;5046950;28;20242;-56
2023/01/03 08:49:53;;;;;;;;;;;;;;;;;;5044829;28;19916;-56
2023/01/03 08:52:19;;;;;;;;;;;;;;;;;;5050833;28;19912;-58
2023/01/03 08:54:45;;;;;;;;;;;;;;;;;;5046376;28;19908;-55
2023/01/03 08:57:10;;;;;;;;;;;;;;;;;;5049324;28;19916;-58
2023/01/03 08:59:36;;;;;;;;;;;;;;;;;;5044718;28;19924;-57
2023/01/03 09:02:02;;;;;;;;;;;;;;;;;;5043414;28;19923;-58
2023/01/03 09:04:28;;;;;;;;;;;;;;;;;;5045507;28;20370;-56
2023/01/03 09:06:54;;;;;;;;;;;;;;;;;;5043049;28;19955;-59
2023/01/03 09:09:20;;;;;;;;;;;;;;;;;;5045012;28;20306;-58
2023/01/03 09:11:46;;;;;;;;;;;;;;;;;;5043902;28;19958;-56
2023/01/03 09:14:11;;;;;;;;;;;;;;;;;;5046844;28;20011;-54
2023/01/03 09:16:37;;;;;;;;;;;;;;;;;;5048664;28;20402;-58
2023/01/03 09:19:03;;;;;;;;;;;;;;;;;;5046122;28;19943;-57
2023/01/03 09:21:29;;;;;;;;;;;;;;;;;;5040188;28;20380;-55
2023/01/03 09:23:55;;;;;;;;;;;7.00;99.90;;;;;;5044131;28;20000;-57
2023/01/03 09:26:20;;;;;;;;;;;7.90;99.90;;;;;;5045956;28;19920;-57
2023/01/03 09:28:46;;;;;;;;;;;8.00;99.90;;;;;;5045474;28;20397;-58
2023/01/03 09:31:11;;;;;;;;;;;8.10;99.90;;;;;;5041830;28;19921;-57
2023/01/03 09:33:37;;;;;;;;;;;8.10;99.90;;;;;;5047368;28;20367;-58
2023/01/03 09:36:03;;;;;;;;;;;8.20;99.90;;;;;;5044057;28;20370;-60
2023/01/03 09:38:28;;;;;;;;;;;8.30;99.90;;;;;;5044763;28;19921;-58
2023/01/03 09:41:01;;;;;;;;;;;8.40;99.90;;;;;;5043896;28;19913;-57
2023/01/03 09:43:32;;;;;;;;;;;8.50;99.90;;;;;;5041117;28;19925;-57
2023/01/03 09:46:00;;;;;;;;;;;8.50;99.90;;;;;;5040833;28;19924;-57
2023/01/03 09:48:31;;;;;;;;;;;8.60;99.90;;;;;;5042669;28;19913;-55
2023/01/03 09:50:57;;;;;;;;;;;8.60;99.90;;;;;;5045522;28;19928;-58
2023/01/03 10:05:03;;;;;;;;;;;8.90;99.90;;;;;;5038435;28;19919;-57
2023/01/03 10:07:28;;;;;;;;;;;9.00;99.90;;;;;;5042069;28;20252;-57
2023/01/03 10:10:09;;;;;;;;;;;9.00;99.90;;;;;;5046540;28;19925;-54
2023/01/03 10:12:37;;;;;;;;;;;9.00;99.90;;;;;;5040267;28;19939;-57
2023/01/03 10:15:03;;;;;;;;;;;9.00;99.90;;;;;;5044156;28;19997;-57
2023/01/03 10:17:32;;;;;;;;;;;9.10;99.90;;;;;;5048030;28;20398;-56
2023/01/03 10:20:13;;;;;;;;;;;9.20;99.90;;;;;;5045877;28;19917;-57
2023/01/03 10:22:38;;;;;;;;;;;9.30;99.90;;;;;;5038467;28;19917;-57
2023/01/03 10:25:04;;;;;;;;;;;9.70;99.90;;;;;;5043564;28;20483;-56
2023/01/03 10:27:46;;;;;;;;;;;9.80;99.90;;;;;;5039910;28;20394;-56
2023/01/03 10:30:14;;;;;;;;;;;9.90;99.90;;;;;;5041708;28;20362;-57
2023/01/03 10:32:57;;;;;;;;;;;10.00;99.90;;;;;;5050163;28;19959;-56
2023/01/03 10:35:26;;;;;;;;;;;10.50;99.90;;;;;;5052140;28;19913;-57
2023/01/03 10:37:52;;;;;;;;;;;10.60;99.90;;;;;;5045617;28;19913;-54
2023/01/03 10:40:18;;;;;;;;;;;10.60;99.90;;;;;;5047571;28;20371;-56
2023/01/03 10:42:44;;;;;;;;;;;10.70;99.90;;;;;;5047232;28;20051;-56
2023/01/03 10:45:14;;;;;;;;;;;10.70;99.90;;;;;;5049789;28;19917;-57
2023/01/03 10:47:40;;;;;;;;;;;10.90;99.90;;;;;;5049912;28;19913;-58
2023/01/03 10:50:06;;;;;;;;;;;11.00;99.90;;;;;;5044941;28;19917;-58
2023/01/03 10:52:39;;;;;;;;;;;11.00;99.90;;;;;;5043450;28;19935;-57
2023/01/03 10:55:12;;;;;;;;;;;11.00;99.90;;;;;;5051843;28;19917;-57
2023/01/03 10:57:41;;;;;;;;;;;11.00;99.90;;;;;;5046535;28;19913;-56
2023/01/03 11:00:19;;;;;;;;;;;11.00;99.90;;;;;;5068774;23;19925;-55
2023/01/03 11:02:45;;;;;;;;;;;11.10;99.90;;;;;;5067857;28;20022;-57
2023/01/03 11:05:15;;;;;;;;;;;11.10;99.90;;;;;;5052077;28;20425;-53
2023/01/03 11:07:48;;;;;;;;;;;11.20;99.90;;;;;;5055950;28;19909;-52
2023/01/03 11:10:15;;;;;;;;;;;11.20;99.90;;;;;;5074613;28;19920;-52
2023/01/03 11:12:40;;;;;;;;;;;11.30;99.90;;;;;;5085955;28;19916;-55
2023/01/03 11:15:24;;;;;;;;;;;11.30;99.90;;;;;;5070304;28;19913;-59
2023/01/03 11:18:03;;;;;;;;;;;11.40;99.90;;;;;;5077228;28;20348;-60
2023/01/03 11:20:38;;;;;;;;;;;11.50;99.90;;;;;;5069444;28;19940;-59
2023/01/03 11:23:11;;;;;;;;;;;11.60;99.90;;;;;;5068757;28;19909;-57
2023/01/03 11:25:56;;;;;;;;;;;11.60;99.90;;;;;;5072317;28;19919;-57
2023/01/03 11:28:40;;;;;;;;;;;11.70;99.90;;;;;;5058997;28;20239;-58
2023/01/03 11:31:32;;;;;;;;;;;11.80;99.90;;;;;;5086854;28;19923;-57
2023/01/03 11:34:03;;;;;;;;;;;11.80;99.90;;;;;;5093662;28;19919;-58
2023/01/03 11:36:31;;;;;;;;;;;11.90;99.90;;;;;;5084282;28;20289;-57
2023/01/03 11:39:21;;;;;;;;;;;11.80;99.90;;;;;;5071272;28;19916;-57
2023/01/03 11:41:46;;;;;;;;;;;11.90;99.90;;;;;;5074340;28;20006;-55
2023/01/03 11:44:19;;;;;;;;;;;12.10;99.90;;;;;;5073167;28;19979;-55
2023/01/03 11:47:03;;;;;;;;;;;12.00;99.90;;;;;;5068051;28;20274;-58
2023/01/03 11:49:47;;;;;;;;;;;12.10;99.90;;;;;;5073434;28;19916;-57
2023/01/03 11:52:41;;;;;;;;;;;12.20;99.90;;;;;;5071643;28;20401;-54
2023/01/03 11:55:18;;;;;;;;;;;12.40;99.90;;;;;;5054415;28;20011;-57
2023/01/03 11:58:04;;;;;;;;;;;12.50;99.90;;;;;;5074101;28;19909;-57
2023/01/03 12:00:42;;;;;;;;;;;12.40;99.90;;;;;;5065069;28;19916;-55
2023/01/03 12:03:10;;;;;;;;;;;12.50;99.90;;;;;;5093033;28;19999;-58
2023/01/03 12:05:40;;;;;;;;;;;12.40;99.90;;;;;;5080602;28;20340;-58
2023/01/03 12:08:15;;;;;;;;;;;12.30;99.90;;;;;;5073159;28;19909;-56
2023/01/03 12:10:43;;;;;;;;;;;12.10;99.90;;;;;;5085726;28;19920;-56
2023/01/03 12:13:09;;;;;;;;;;;12.00;99.90;;;;;;5093181;28;19958;-57
2023/01/03 12:15:34;;;;;;;;;;;11.90;99.90;;;;;;5079705;28;20359;-57
2023/01/03 12:18:02;;;;;;;;;;;11.90;99.90;;;;;;5093599;28;20433;-55
2023/01/03 12:20:33;;;;;;;;;;;11.80;99.90;;;;;;5093279;28;19912;-55
2023/01/03 12:23:04;;;;;;;;;;;11.70;99.90;;;;;;5086415;28;19936;-60
2023/01/03 12:25:33;;;;;;;;;;;11.70;99.90;;;;;;5073678;28;19970;-55
2023/01/03 12:28:06;;;;;;;;;;;11.70;99.90;;;;;;5070994;28;19957;-56
2023/01/03 12:30:51;;;;;;;;;;;11.80;99.90;;;;;;5076963;28;19923;-53
2023/01/03 12:33:30;;;;;;;;;;;11.70;99.90;;;;;;5073523;28;19985;-58
2023/01/03 12:36:14;;;;;;;;;;;11.80;99.90;;;;;;5068638;28;19920;-51
2023/01/03 12:38:41;;;;;;;;;;;11.90;99.90;;;;;;5078570;28;19963;-56
2023/01/03 12:41:25;;;;;;;;;;;11.90;99.90;;;;;;5073847;28;19909;-56
2023/01/03 12:43:53;;;;;;;;;;;12.10;99.90;;;;;;5066225;28;19919;-57
2023/01/03 12:46:22;;;;;;;;;;;12.40;99.90;;;;;;5069801;28;19919;-55
2023/01/03 12:49:06;;;;;;;;;;;12.40;99.90;;;;;;5074316;28;20302;-57
2023/01/03 12:51:32;;;;;;;;;;;12.30;99.90;;;;;;5077530;28;19916;-57
2023/01/03 12:54:16;;;;;;;;;;;12.20;99.90;;;;;;5077654;28;19924;-55
2023/01/03 12:56:56;;;;;;;;;;;12.00;99.90;;;;;;5071787;28;19909;-59
2023/01/03 12:59:35;;;;;;;;;;;12.00;99.90;;;;;;5065183;28;20378;-57
2023/01/03 13:02:20;;;;;;;;;;;11.70;99.90;;;;;;5066730;28;19958;-60
2023/01/03 13:04:48;;;;;;;;;;;11.50;99.90;;;;;;5071536;28;19923;-56
2023/01/03 13:07:23;;;;;;;;;;;11.50;99.90;;;;;;5070938;28;19978;-57
2023/01/03 13:09:52;;;;;;;;;;;11.40;99.90;;;;;;5078248;28;19923;-56
2023/01/03 13:12:18;;;;;;;;;;;11.60;99.90;;;;;;5075764;28;20114;-59
2023/01/03 13:14:52;;;;;;;;;;;11.80;99.90;;;;;;5072899;28;19938;-59
2023/01/03 13:17:19;;;;;;;;;;;12.00;99.90;;;;;;5086154;28;19912;-59
2023/01/03 13:19:53;;;;;;;;;;;12.20;99.90;;;;;;5085372;28;19982;-59
2023/01/03 13:22:33;;;;;;;;;;;12.30;99.90;;;;;;5074253;28;19916;-57
2023/01/03 13:25:17;;;;;;;;;;;12.40;99.90;;;;;;5072185;28;19944;-59
2023/01/03 13:27:49;;;;;;;;;;;12.60;99.90;;;;;;5066697;28;19916;-58
2023/01/03 13:30:20;;;;;;;;;;;12.50;99.90;;;;;;5083771;28;19916;-59
2023/01/03 13:33:12;;;;;;;;;;;12.50;99.90;;;;;;5071944;28;19920;-55
2023/01/03 13:35:41;;;;;;;;;;;12.50;99.90;;;;;;5071174;28;19909;-52
2023/01/03 13:38:18;;;;;;;;;;;12.60;99.90;;;;;;5072735;28;20507;-52
2023/01/03 13:40:44;;;;;;;;;;;12.50;99.90;;;;;;5070278;28;19912;-61
2023/01/03 13:43:10;;;;;;;;;;;12.60;99.90;;;;;;5081204;28;19913;-58
2023/01/03 13:45:35;;;;;;;;;;;12.60;99.90;;;;;;5081282;28;19913;-61
2023/01/03 13:48:19;;;;;;;;;;;12.30;99.90;;;;;;5072083;28;19958;-59
2023/01/03 13:51:05;;;;;;;;;;;12.30;99.90;;;;;;5071855;28;19988;-56
2023/01/03 13:53:35;;;;;;;;;;;12.20;99.90;;;;;;5087557;28;19952;-56
2023/01/03 13:56:15;;;;;;;;;;;12.20;99.90;;;;;;5087885;28;19912;-60
2023/01/03 13:58:51;;;;;;;;;;;12.10;99.90;;;;;;5078004;28;19912;-60
2023/01/03 14:01:24;;;;;;;;;;;12.10;99.90;;;;;;5076406;28;19995;-59
2023/01/03 14:04:12;;;;;;;;;;;12.00;99.90;;;;;;5071852;28;20358;-60
2023/01/03 14:06:43;;;;;;;;;;;12.00;99.90;;;;;;5071854;28;19908;-55
2023/01/03 14:09:21;;;;;;;;;;;11.80;99.90;;;;;;5071563;28;19942;-61
2023/01/03 14:12:02;;;;;;;;;;;11.80;99.90;;;;;;5070297;28;19917;-59
2023/01/03 14:14:29;;;;;;;;;;;11.80;99.90;;;;;;5071056;28;19920;-61
2023/01/03 14:16:56;;;;;;;;;;;11.80;99.90;;;;;;5070995;28;19912;-60
2023/01/03 14:19:29;;;;;;;;;;;11.70;99.90;;;;;;5071467;28;20285;-59
2023/01/03 14:21:58;;;;;;;;;;;11.70;99.90;;;;;;5070291;28;19955;-56
2023/01/03 14:24:25;;;;;;;;;;;11.70;99.90;;;;;;5071307;28;19912;-60
2023/01/03 14:26:51;;;;;;;;;;;11.70;99.90;;;;;;5070173;28;19913;-58
2023/01/03 14:29:19;;;;;;;;;;;11.60;99.90;;;;;;5073643;28;20511;-60
2023/01/03 14:31:46;;;;;;;;;;;11.60;99.90;;;;;;5075182;28;19909;-60
2023/01/03 14:34:31;;;;;;;;;;;11.60;99.90;;;;;;5086320;28;19912;-57
2023/01/03 14:37:05;;;;;;;;;;;11.50;99.90;;;;;;5086156;28;19957;-56
2023/01/03 14:39:33;;;;;;;;;;;11.50;99.90;;;;;;5089472;28;19927;-59
2023/01/03 14:41:59;;;;;;;;;;;11.60;99.90;;;;;;5084111;28;19920;-58
2023/01/03 14:44:25;;;;;;;;;;;11.50;99.90;;;;;;5094024;28;19920;-59
2023/01/03 14:46:58;;;;;;;;;;;11.40;99.90;;;;;;5088566;28;19912;-61
2023/01/03 14:49:23;;;;;;;;;;;11.20;99.90;;;;;;5068547;28;19915;-58
2023/01/03 14:51:49;;;;;;;;;;;11.10;99.90;;;;;;5081188;28;19912;-58
2023/01/03 14:54:16;;;;;;;;;;;11.10;99.90;;;;;;5091406;28;19912;-58
2023/01/03 14:56:45;;;;;;;;;;;11.10;99.90;;;;;;5067136;28;19913;-59
2023/01/03 14:59:15;;;;;;;;;;;11.10;99.90;;;;;;5061021;28;20289;-59
2023/01/03 15:01:41;;;;;;;;;;;11.00;99.90;;;;;;5065137;28;20535;-59
2023/01/03 15:04:12;;;;;;;;;;;11.00;99.90;;;;;;5068824;28;20367;-60
2023/01/03 15:06:37;;;;;;;;;;;11.00;99.90;;;;;;5070149;28;20346;-59
2023/01/03 15:09:17;;;;;;;;;;;10.80;99.90;;;;;;5068699;28;19935;-59
2023/01/03 15:11:54;;;;;;;;;;;10.70;99.90;;;;;;5074186;28;19916;-57
2023/01/03 15:14:21;;;;;;;;;;;10.80;99.90;;;;;;5074713;28;19924;-56
2023/01/03 15:16:48;;;;;;;;;;;10.80;99.90;;;;;;5070077;28;19923;-57
2023/01/03 15:19:13;;;;;;;;;;;10.70;99.90;;;;;;5070428;28;19958;-56
2023/01/03 15:21:39;;;;;;;;;;;10.60;99.90;;;;;;5067541;28;19920;-56
2023/01/03 15:24:10;;;;;;;;;;;10.50;99.90;;;;;;5074895;28;19912;-60
2023/01/03 15:26:37;;;;;;;;;;;10.50;99.90;;;;;;5070402;28;20426;-52
2023/01/03 15:29:15;;;;;;;;;;;10.50;99.90;;;;;;5073716;28;19957;-55
2023/01/03 15:31:59;;;;;;;;;;;10.50;99.90;;;;;;5068861;28;20374;-59
2023/01/03 15:34:27;;;;;;;;;;;10.30;99.90;;;;;;5072273;28;19916;-60
2023/01/03 15:37:03;;;;;;;;;;;10.20;99.90;;;;;;5074255;28;19912;-59
2023/01/03 15:39:35;;;;;;;;;;;10.10;99.90;;;;;;5072453;28;20016;-60
2023/01/03 15:44:46;;;;;;;;;;;9.90;99.90;;;;;;5072189;28;19947;-59
2023/01/03 15:47:13;;;;;;;;;;;9.70;99.90;;;;;;5072104;28;19921;-59
2023/01/03 15:49:40;;;;;;;;;;;9.60;99.90;;;;;;5070863;28;19920;-58
2023/01/03 15:52:05;;;;;;;;;;;9.50;99.90;;;;;;5068486;28;19921;-59